Timeline UpdatesTrip UpdatesNews PostsPvt PostsTravel TipsAdmin PostsConv PostsFollowed PostsChat RequestsBlog PostsPNR Posts

Disclaimer
Search
 
 
Thu Aug 21, 2014 11:47:06 ISTHomeTrainsΣChainsAtlasPNRForumGalleryNewsFAQTripsMembersLoginFeedback
No Recent News for this Train
Other Trains in the News **new
Latest...
Cancelled on 20/5/14.
Mon May 19, 2014 (06:12PM)
⇐ Return Journey: Train# 13008

13007/Udyan Abha Toofan Express

May 08 2014 (6:16PM)
Change Departure Station:
Change Arrival Station:
Post a Train Travel TipPost a Train Travel Tip **new
Post a Comment/Question/Picture/VideoPost a Comment/Question/Picture/Video
Inaugural Run
Wed Jan 01, 1930
Pantry/Catering
✕ NO Pantry Car
✕ NO Catering
Loco/Rake Reversals
AGC/Agra Cantt. (6);
RSA - Rake Sharing
Rake/Coach Composition
LOCO-SLR-GEN-GEN-B1-S5-S4-S3-S2-S1-GEN-GEN-SLR-HCPV-HCPV.
Loco
HWH-NDLS: HWH WAP-4 NDLS-SGNR: TKD WDM-3A
News    PNR    Forum    Time-Table    Availability    Fare Chart    Map    Arr/Dep History    Trips    Gallery    ΣChains    X/O    Timeline    
Travel Time: 33h 27m    87 halts    Distance: 1545 km    Avg Speed: 46 km/hr
Type: Mail/Express
Zone: ER/Eastern
Departs @ 09:35 (Avg 44m late)
Platform# 11
SMTWTFS
Kolkata Howrah Junction/HWH 
Arrives @ 19:02 +1 night (Avg 5h 50m late)
Platform# ???
SMTWTFS
Okhla/OKA 

87 halts. 291 intermediate Stations between Kolkata Howrah Junction and Okhla

Show ALL intermediate Stations  Show Old Time-Table

#CodeStation NameX/OArrivesAvgDepartsAvgHaltPFDay#KmSpeedElevZoneAddress
1HWH»Kolkata Howrah Junction (23)»  -09:35+441110.04210mERHowrah 711101, West Bengal
2BDCBandel Junction (7)X  10:32+4710:37+485m--139.67014mERdist - HOOGHLY, West Bengal
3BWNBarddhaman Junction (8)X  11:35+5111:40+525m--1106.88234mERDist - Barddhaman, West Bengal
4PANPanagarh (4)  12:15+5212:16+531m--1154.85570mERKaksa, West Bengal
5DGRDurgapur (5)X  12:33+5612:35+572m31170.47971mERDurgapur, West Bengal
6UDLAndal Junction (6)X  12:48+5312:50+522m--1187.46286mERAndal, West Bengal
7RNGRaniGanj (4)X  12:57+1:0112:58+1:031m--1194.73492mERRaniganj, West Bengal
8ASNAsansol Junction (7)X  13:30+4913:35+545m41212.840113mERDist - bardhaman, West Bengal
9STNSitarampur Junction (5)  13:48+5113:50+522m--1221.658139mERG T Rd Before Asansol, West Bengal
10CRJChittaranjan (3)X  14:07+5814:08+591m31237.966182mERMihijam, Jharkhand
11JMTJamtara (2)X  14:21+5414:22+561m11252.263201mERJamtara, Jharkhand
12VDSVidyasagar (2)  14:39+5714:40+581m--1270.166250mERJamtara, Jharkhand
13MDPMadhupur Junction (4)  15:02+1:0415:12+1:0010m21294.367254mER06432-224478, Jharkhand
14JSMEJasidih Junction (5)  15:38+5815:43+585m--1323.480271mERJasidih, Jharkhand
15STLSimultala (2)X  16:02+1:1316:03+1:131m--1348.830247mERSimultala, Bihar
16JAJJhajha (4)  16:40+5016:45+525m31367.562143mECRJhajha, Bihar
17GHRGidhaur (2)X  16:56+5516:57+591m--1378.973106mECRState Highway 18, Bihar
18JMUJamui (3)X  17:09+1:0517:10+1:091m--1393.59481mECRState Highway 72, Bihar
19MNPMananpur (2)  17:23+1:1217:24+1:151m--1413.91757mECRState Highway 18, Bihar
20BSQPBansipur  17:33+1:1417:34+1:181m--1416.42653mECRKiul, Bihar
21KIULKiul Junction (5)X  17:44+1:2517:48+1:254m31420.81253mECRDist. Lakhisarai, Bihar
22LKRLuckeesarai Junction (2)X  17:55+1:1717:56+1:181m--1422.14852mECRLakhisarai, Bihar
23MKBMankatha  18:03+1:1718:04+1:181m--1427.73547mECRNational Highway 80, Bihar
24DMRXDumri Halt (1)  18:13-18:14-1m11433.05149mECRNational Highway 80, Bihar
25BRYABarhiya (3)  18:19+1:1718:20+1:191m--1437.25647mECRBarahiya, Bihar
26HTZHathidah Junction (2)X  18:30+1:1918:31+1:211m21446.65650mECRMusahari, Bihar
27MKAMokama Junction (4)X  18:40+1:2418:44+1:244m--1455.07248mECRPatna, Bihar
28MORMorX  18:50+1:2618:51+1:261m--1462.25546mECRMor, Bihar
29PHKPunarakh  19:00+1:2519:01+1:271m--1470.56251mECRPunarakh, Bihar
30BARHBarh (3)X  19:11+1:2619:12+1:301m--1480.96949mECRBarh, Bihar
31ATLAthmal Gola (2)XO  19:20+1:3019:21+1:301m--1490.12252mECRPatna, Bihar
32BKPBakhtiyarpur Junction (5)X  19:46+1:1219:48+1:152m--1499.17951mECRPatna, Bihar
33KOOKhusropur (2)  19:59+1:1920:00+1:241m--1513.75652mECRPatna, Bihar
34FUTFatwa (6)  20:09+1:2620:10+1:321m--1522.17353mECRPatna, Bihar
35PNCPatna Saheb (3)X  20:20+1:3720:21+1:411m--1534.42659mECRPatna, Bihar
36GZHGulzarbagh (3)X  20:28+1:4020:29+1:471m--1537.42055mECRPatna, Bihar
37PNBEPatna Junction (10)X  20:50+1:5621:00+2:0310m41544.23857mECRPatna 800001, Bihar
38DNRDanapur (5)XO  21:15+1:5821:25+1:5910m--1553.66058mECRKhagaul, Bihar
39NEONeora (2)X  21:31+2:0221:32+2:061m--1559.76161mECRNational Highway 98, Bihar
40SDESadisopur (2)  21:39-21:40-1m--1566.85164mECRSadisopur, Bihar
41BTABihta (2)X  21:45+2:0921:46+2:131m--1571.04862mECRDistt: Patna, Bihar
42KWRKoelwar (2)O  21:57-21:58-1m--1579.73165mECRNational Highway 30, Bihar
43KUAKulharia (2)  22:05+2:1022:06+2:111m--1583.35461mECRChandi Sahar Rd, Bihar
44ARAAra Junction (3)  22:17+2:0922:22+2:105m--1593.29263mECRarrah( 06182-233411), Bihar
45BEABihiya (3)  22:36+2:1322:37+2:171m--1614.65167mECRBehea, Bihar
46BYNBanahi (2)  22:44+2:1622:45+2:161m--1620.55967mECRBanahi, Bihar
47RPRRaghunathpur (4)  22:54+2:1422:55+2:161m--1629.47469mECRRaghunathpur, Bihar
48DUREDumraon (3)  23:08+2:1823:09+2:201m--1645.36170mECRDumraon, Bihar
49BXRBuxar (3)X  23:25+2:2423:30+2:235m--1661.78067mECRBuxar, Bihar
50DLNDildarnagar Junction (2)  23:57+2:2123:59+2:212m--1697.95872mECRDildarnagar, Uttar Pradesh
51ZNAZamania (2)XO  00:13+2:2300:14+2:241m--2711.42077mECRGhazipur, Uttar Pradesh
52MGSMughal Sarai Junction (8)XO  02:25+1:1202:40+1:1415m--2755.65583mECRMughalsarai 232101, Uttar Pradesh
53CARChunar Junction (5)X  03:15+1:4403:16+1:491m22787.56185mNCRChunar Junction, Uttar Pradesh
54MZPMirzapur (3)O  03:47+2:1203:48+2:151m--2818.84988mNCRMirzapur, Uttar Pradesh
55BDLVindhyachal (3)  03:57+2:1003:58+2:131m--2826.17488mNCRMirzapur, Uttar Pradesh
56ALDAllahabad Junction (10)X  05:05+3:1905:15+3:2110m22908.377100mNCRAllahabad 211003, Uttar Pradesh
57BREBharwariX  05:44+3:3505:45+3:381m--2945.475108mNCRBharwari, Uttar Pradesh
58SROSirathu (2)X  06:01+3:4006:02+3:431m12965.571109mNCRSirathu, Uttar Pradesh
59KGAKhaga (3)  06:23+3:4506:24+3:491m--2990.352114mNCRFatehpur, Uttar Pradesh
60FTPFatehpur (3)  07:04+3:4407:05+3:501m--21025.085120mNCRFatehpur, Uttar Pradesh
61BKOBindki Road  07:27+3:5507:28+3:591m--21056.349124mNCRFatehpur, Uttar Pradesh
62CNBKanpur Central (10)O  08:25+4:0708:40+4:1115m221102.625128mNCRKANPUR-208 001, Uttar Pradesh
63GOYGovindpuri Junction (2)  08:49+4:2008:50+4:211m--21106.451129mNCRKANPUR-208 006, Uttar Pradesh
64PNKPanki (3)  08:59+4:2809:00+4:311m--21114.186129mNCRKANPUR-208 020, Uttar Pradesh
65RURARura (4)  09:23+4:3909:24+4:441m--21146.971137mNCRJhinjhak, Uttar Pradesh
66JJKJhinjhak (3)  09:40+4:4409:41+4:471m321165.974140mNCRAuraiya, Uttar Pradesh
67PHDPhaphund (4)X  09:57+4:5109:58+4:531m--21185.767146mNCRdist. Auraiya, Uttar Pradesh
68ULDAchalda (3)X  10:13+4:5310:14+4:561m--21202.573147mNCRDist. Auraiya(05688-1072), Uttar Pradesh
69BNTBharthana (3)X  10:30+4:5610:31+4:581m--21222.052147mNCRBharthana, Uttar Pradesh
70ETWEtawah (5)  10:54+4:5910:55+5:041m221241.980154mNCRDistt. Etawah, Uttar Pradesh
71JGRJaswantnagar (2)X  11:07+5:0711:08+5:091m--21257.969154mNCRJaswantnagar, Uttar Pradesh
72BDNBhadan (2)  11:25+5:0911:26+5:111m--21277.352160mNCRFirozabad, Uttar Pradesh
73SKBShikohabad Junction (4)X  11:49+5:0811:50+5:101m321297.338166mNCRDistrict Firozabad, Uttar Pradesh
74FZDFirozabad (4)  12:21+5:0012:22+5:041m321317.223164mNCRFirozabad, Uttar Pradesh
75TDLTundla Junction (5)  13:05+4:5013:15+4:4910m221333.721167mNCRDistt.Firozabad, Uttar Pradesh
76AFAgra Fort (3)  14:20+4:3814:25+5:055m221356.714170mNCRRakabganj, Uttar Pradesh
77IDHIdgah Agra Junction (3)  14:34+5:0614:35+5:291m--21358.85168mNCRAgra, Uttar Pradesh
78AGCAgra Cantt. (6)XO15:00+5:1415:20+5:3720m321361.013174mNCRAgra, Uttar Pradesh
79RKMRaja Ki Mandi (4)  15:38+5:3115:39+5:321m121365.065170mNCRAgra, Uttar Pradesh
80MTJMathura Junction (10)  16:25+5:4116:33+5:398m221414.772179mNCRMathura, Uttar Pradesh
81CHJChata (4)X  16:59+5:4117:00+5:421m--21445.851 NCRChhata, Uttar Pradesh
82KSVKosi Kalan (3)X  17:12+5:4117:13+5:431m121456.155189mNCRKosi Kalan, Uttar Pradesh
83PWLPalwal (8)X  17:59+5:3118:00+5:351m--21498.656200mNRPalwal, Haryana
84ASTAsaoti (5)  18:12+5:3718:13+5:381m321509.959203mNRAsaoti, Haryana
85BVHBallabgarh (5)  18:23+5:4118:24+5:421m--21519.850203mNRFaridabad, Haryana
86FDNFaridabad New Town (3)X  18:29+5:4218:30+5:421m--21523.947204mNRFaridabad, Haryana
87FDBFaridabad (4)  18:35+5:4718:36+5:471m221527.848206mNRold Faridabad, Haryana
88TKDTuglakabad (4)X  18:50+5:4918:51+5:501m--21538.933213mNRNear Tughlakabad Metro Station, Delhi NCT
89OKA•Okhla (4)•  19:02+5:5019:03+5:501m--21544.918221mNRIshwar Nagar Mathura Road, Delhi NCT
90NZMDelhi Hazrat Nizamuddin (7)X  19:15+5:4419:17+5:442m321548.648209mNRNew Delhi 110013, Delhi NCT
91TKJTilak Bridge (4)X  19:23+5:4719:24+5:471m--21553.49214mNRNew Delhi, Delhi NCT
92NDLSNew Delhi (16)X  19:40+5:4720:10+5:4830m221555.814215mNRNew Delhi, Delhi NCT
93DKZDelhi KishanGanj (2)  20:27+5:4820:28+5:491m--21559.732220mNRSarai Rohilla, Delhi NCT
94SSBShakur BastiX  20:41+5:5020:42+5:511m--21566.745216mNRPitampura, Delhi NCT
95NNONangloiX  20:52+5:5220:53+5:531m--21574.158219mNRJJ Colony No 1, Delhi NCT
96BGZBahadurgarh  21:06+5:4921:07+5:501m--21586.672220mNRBahadurgarh, Haryana
97SPZSamplaX  21:22+5:5821:23+6:001m--21604.650222mNRSampla, Haryana
98ROKRohtak Junction (3)  21:50+5:5721:55+5:555m--21626.967220mNRRohtak, Haryana
99JNAJulana  22:23+5:5122:24+5:521m--21658.350226mNRJulana, Haryana
100JINDJind Junction (3)  22:55+5:4823:00+5:475m--21684.070222mNR126102., Haryana
101UCAUchana  23:16+5:4823:17+5:501m--21702.765225mNRDistrict Jind, Haryana
102NRWNarwana Junction (4)  23:31+5:5423:32+5:551m--21717.973235mNRWay to Narwana, Haryana
103TUNTohana (2)  23:53+5:5623:54+5:571m--21743.335232mNRTohana, Haryana
104JHLJakhal Junction  00:15+5:5200:25+5:4210m--31755.643225mNRJakhal, Haryana
105BLZBudhladaX  01:06+5:2901:07+5:301m--31785.248223mNRBudhlada, Punjab
106MSZMansa  01:27+5:3001:28+5:321m--31801.349222mNRMansa, Punjab
107MAURMaur  01:51+5:3701:52+5:381m--31820.026220mNRMaur Mandi, Punjab
108BTIBathinda Junction (6)XO  03:15+5:0804:05+4:5350m231855.573208mNRBathinda, Punjab
109GDBGiddarbaha  04:28+5:0204:29+5:101m--31883.357200mNRGiddarbaha, Punjab
110MOTMalout (1)  04:46+5:1004:47+5:111m131899.544194mNRMalaut, Punjab
111ABSAbohar  05:27+5:0005:28+5:021m--31929.035186mNRAbohar, Punjab
112SGNRShri Ganganagar  07:00+4:34-331982.1-178mNWRSri Ganganagar, Rajasthan
Scroll to Top
Scroll to Bottom